createdAt,value
2023-01-30T00:00:09.629Z,1008.57
2023-01-30T00:01:09.674Z,1008.61
2023-01-30T00:02:09.640Z,1008.66
2023-01-30T00:03:09.683Z,1008.59
2023-01-30T00:04:09.637Z,1008.64
2023-01-30T00:05:09.612Z,1008.57
2023-01-30T00:06:09.574Z,1008.61
2023-01-30T00:07:09.589Z,1008.55
2023-01-30T00:08:09.544Z,1008.54
2023-01-30T00:09:09.528Z,1008.61
2023-01-30T00:10:09.524Z,1008.54
2023-01-30T00:11:09.538Z,1008.50
2023-01-30T00:12:09.514Z,1008.48
2023-01-30T00:13:09.482Z,1008.42
2023-01-30T00:14:10.290Z,1008.43
2023-01-30T00:15:09.497Z,1008.36
2023-01-30T00:16:09.446Z,1008.33
2023-01-30T00:17:09.446Z,1008.31
2023-01-30T00:18:09.429Z,1008.27
2023-01-30T00:19:09.414Z,1008.19
2023-01-30T00:20:09.400Z,1008.20
2023-01-30T00:21:09.400Z,1008.18
2023-01-30T00:22:09.384Z,1008.12
2023-01-30T00:23:09.392Z,1008.14
2023-01-30T00:24:09.373Z,1008.12
2023-01-30T00:25:09.615Z,1008.10
2023-01-30T00:26:09.356Z,1007.95
2023-01-30T00:27:09.331Z,1008.00
2023-01-30T00:28:09.342Z,1007.93
2023-01-30T00:29:09.314Z,1007.86
2023-01-30T00:30:09.290Z,1007.95
2023-01-30T00:31:09.311Z,1007.91
2023-01-30T00:32:09.286Z,1007.91
2023-01-30T00:33:09.283Z,1007.83
2023-01-30T00:34:09.241Z,1007.86
2023-01-30T00:35:09.237Z,1007.72
2023-01-30T00:36:09.261Z,1007.74
2023-01-30T00:37:09.216Z,1007.67
2023-01-30T00:38:09.230Z,1007.67
2023-01-30T00:39:09.221Z,1007.58
2023-01-30T00:40:09.185Z,1007.54
2023-01-30T00:41:09.184Z,1007.45
2023-01-30T00:42:09.166Z,1007.43
2023-01-30T00:43:09.156Z,1007.32
2023-01-30T00:44:09.141Z,1007.34
2023-01-30T00:45:15.097Z,1007.24
2023-01-30T00:46:09.195Z,1007.28
2023-01-30T00:47:09.216Z,1007.26
2023-01-30T00:48:09.087Z,1007.13
2023-01-30T00:49:09.104Z,1007.09
2023-01-30T00:50:09.138Z,1007.08
2023-01-30T00:51:09.114Z,1007.05
2023-01-30T00:52:09.063Z,1007.02
2023-01-30T00:53:09.078Z,1006.95
2023-01-30T00:54:09.041Z,1006.84
2023-01-30T00:55:09.115Z,1006.81
2023-01-30T00:56:09.012Z,1006.76
2023-01-30T00:57:09.057Z,1006.64
2023-01-30T00:58:08.998Z,1006.53
2023-01-30T00:59:09.256Z,1006.51
2023-01-30T01:00:08.986Z,1006.47
2023-01-30T01:01:08.969Z,1006.52
2023-01-30T01:02:09.029Z,1006.53
2023-01-30T01:03:08.999Z,1006.50
2023-01-30T01:04:08.997Z,1006.50
2023-01-30T01:05:08.919Z,1006.43
2023-01-30T01:06:08.905Z,1006.39
2023-01-30T01:07:08.907Z,1006.32
2023-01-30T01:08:08.893Z,1006.34
2023-01-30T01:09:08.895Z,1006.37
2023-01-30T01:10:08.876Z,1006.36
2023-01-30T01:11:08.857Z,1006.31
2023-01-30T01:12:08.826Z,1006.36
2023-01-30T01:13:08.828Z,1006.32
2023-01-30T01:14:08.852Z,1006.36
2023-01-30T01:15:08.802Z,1006.41
2023-01-30T01:16:08.838Z,1006.41
2023-01-30T01:17:08.779Z,1006.39
2023-01-30T01:18:08.775Z,1006.41
2023-01-30T01:19:08.767Z,1006.35
2023-01-30T01:20:08.739Z,1006.29
2023-01-30T01:21:08.745Z,1006.30
2023-01-30T01:22:08.725Z,1006.38
2023-01-30T01:23:08.714Z,1006.35
2023-01-30T01:24:08.702Z,1006.30
2023-01-30T01:25:08.717Z,1006.24
2023-01-30T01:26:08.735Z,1006.13
2023-01-30T01:27:08.730Z,1005.95
2023-01-30T01:28:08.668Z,1005.91
2023-01-30T01:29:08.664Z,1005.75
2023-01-30T01:30:08.657Z,1005.69
2023-01-30T01:31:08.720Z,1005.65
2023-01-30T01:32:08.710Z,1005.63
2023-01-30T01:33:08.637Z,1005.55
2023-01-30T01:34:08.599Z,1005.51
2023-01-30T01:35:08.584Z,1005.48
2023-01-30T01:36:08.566Z,1005.53
2023-01-30T01:37:08.573Z,1005.59
2023-01-30T01:38:08.563Z,1005.59
2023-01-30T01:39:08.558Z,1005.61
2023-01-30T01:40:08.510Z,1005.58
2023-01-30T01:41:08.515Z,1005.60
2023-01-30T01:42:09.992Z,1005.67
2023-01-30T01:43:08.501Z,1005.62
2023-01-30T01:44:15.332Z,1005.62
2023-01-30T01:45:08.470Z,1005.62
2023-01-30T01:46:08.535Z,1005.61
2023-01-30T01:47:08.466Z,1005.56
2023-01-30T01:48:08.442Z,1005.58
2023-01-30T01:49:08.444Z,1005.65
2023-01-30T01:50:08.449Z,1005.71
2023-01-30T01:51:08.388Z,1005.71
2023-01-30T01:52:10.371Z,1005.76
2023-01-30T01:53:08.400Z,1005.83
2023-01-30T01:54:08.347Z,1005.86
2023-01-30T01:55:08.394Z,1005.86
2023-01-30T01:56:08.341Z,1005.78
2023-01-30T01:57:08.353Z,1005.77
2023-01-30T01:58:08.306Z,1005.80
2023-01-30T01:59:08.652Z,1005.69
2023-01-30T02:00:08.309Z,1005.81
2023-01-30T02:01:08.324Z,1005.72
2023-01-30T02:02:08.278Z,1005.77
2023-01-30T02:03:08.261Z,1005.61
2023-01-30T02:04:08.250Z,1005.64
2023-01-30T02:05:08.246Z,1005.58
2023-01-30T02:06:08.223Z,1005.57
2023-01-30T02:07:08.228Z,1005.45
2023-01-30T02:08:08.215Z,1005.40
2023-01-30T02:09:08.243Z,1005.40
2023-01-30T02:10:08.190Z,1005.30
2023-01-30T02:11:08.225Z,1005.29
2023-01-30T02:12:08.161Z,1005.21
2023-01-30T02:13:08.147Z,1005.18
2023-01-30T02:14:08.135Z,1005.11
2023-01-30T02:15:08.133Z,1005.03
2023-01-30T02:16:08.121Z,1005.06
2023-01-30T02:17:08.112Z,1005.00
2023-01-30T02:18:08.114Z,1004.91
2023-01-30T02:19:08.076Z,1004.93
2023-01-30T02:20:08.084Z,1004.98
2023-01-30T02:21:08.227Z,1004.90
2023-01-30T02:22:08.037Z,1004.84
2023-01-30T02:23:08.043Z,1004.86
2023-01-30T02:24:08.014Z,1004.80
2023-01-30T02:25:08.012Z,1004.72
2023-01-30T02:26:08.033Z,1004.67
2023-01-30T02:27:08.017Z,1004.66
2023-01-30T02:28:07.995Z,1004.61
2023-01-30T02:29:07.967Z,1004.69
2023-01-30T02:30:07.968Z,1004.69
2023-01-30T02:31:08.075Z,1004.59
2023-01-30T02:32:07.946Z,1004.45
2023-01-30T02:33:07.949Z,1004.44
2023-01-30T02:34:07.945Z,1004.40
2023-01-30T02:35:07.949Z,1004.38
2023-01-30T02:36:07.899Z,1004.43
2023-01-30T02:37:07.866Z,1004.37
2023-01-30T02:38:07.891Z,1004.35
2023-01-30T02:39:07.864Z,1004.28
2023-01-30T02:40:07.923Z,1004.36
2023-01-30T02:41:07.844Z,1004.36
2023-01-30T02:42:07.828Z,1004.39
2023-01-30T02:43:07.833Z,1004.35
2023-01-30T02:44:07.795Z,1004.46
2023-01-30T02:45:07.796Z,1004.41
2023-01-30T02:46:07.889Z,1004.38
2023-01-30T02:47:08.383Z,1004.38
2023-01-30T02:48:07.773Z,1004.45
2023-01-30T02:49:07.746Z,1004.36
2023-01-30T02:50:07.739Z,1004.39
2023-01-30T02:51:07.726Z,1004.38
2023-01-30T02:52:07.713Z,1004.11
2023-01-30T02:53:07.705Z,1004.22
2023-01-30T02:54:07.716Z,1004.09
2023-01-30T02:55:07.691Z,1004.07
2023-01-30T02:56:07.706Z,1004.04
2023-01-30T02:57:07.660Z,1003.98
2023-01-30T02:58:07.652Z,1004.03
2023-01-30T02:59:07.694Z,1004.01
2023-01-30T03:00:07.600Z,1004.06
2023-01-30T03:01:07.630Z,1003.96
2023-01-30T03:02:07.651Z,1003.87
2023-01-30T03:03:07.586Z,1003.81
2023-01-30T03:04:07.585Z,1003.84
2023-01-30T03:05:07.567Z,1003.77
2023-01-30T03:06:07.553Z,1003.72
2023-01-30T03:07:07.637Z,1003.70
2023-01-30T03:08:07.570Z,1003.71
2023-01-30T03:09:07.545Z,1003.61
2023-01-30T03:10:07.501Z,1003.60
2023-01-30T03:11:07.520Z,1003.65
2023-01-30T03:12:07.481Z,1003.74
2023-01-30T03:13:07.492Z,1003.68
2023-01-30T03:14:07.479Z,1003.64
2023-01-30T03:15:07.491Z,1003.65
2023-01-30T03:16:07.558Z,1003.67
2023-01-30T03:17:07.437Z,1003.62
2023-01-30T03:18:07.418Z,1003.56
2023-01-30T03:19:07.422Z,1003.51
2023-01-30T03:20:07.409Z,1003.61
2023-01-30T03:21:07.395Z,1003.66
2023-01-30T03:22:07.385Z,1003.64
2023-01-30T03:23:07.382Z,1003.58
2023-01-30T03:24:07.426Z,1003.49
2023-01-30T03:25:07.350Z,1003.47
2023-01-30T03:26:07.315Z,1003.45
2023-01-30T03:27:07.323Z,1003.44
2023-01-30T03:28:07.325Z,1003.46
2023-01-30T03:29:07.321Z,1003.46
2023-01-30T03:30:07.310Z,1003.48
2023-01-30T03:31:07.510Z,1003.42
2023-01-30T03:32:07.261Z,1003.41
2023-01-30T03:33:07.280Z,1003.40
2023-01-30T03:34:07.268Z,1003.31
2023-01-30T03:35:07.314Z,1003.26
2023-01-30T03:36:07.222Z,1003.26
2023-01-30T03:37:07.220Z,1003.30
2023-01-30T03:38:07.203Z,1003.36
2023-01-30T03:39:07.191Z,1003.36
2023-01-30T03:40:07.166Z,1003.38
2023-01-30T03:41:07.143Z,1003.41
2023-01-30T03:42:07.154Z,1003.36
2023-01-30T03:43:07.142Z,1003.34
2023-01-30T03:44:07.129Z,1003.28
2023-01-30T03:45:07.138Z,1003.33
2023-01-30T03:46:07.114Z,1003.35
2023-01-30T03:47:07.097Z,1003.31
2023-01-30T03:48:07.115Z,1003.33
2023-01-30T03:49:07.093Z,1003.27
2023-01-30T03:50:07.053Z,1003.31
2023-01-30T03:51:07.049Z,1003.36
2023-01-30T03:52:07.045Z,1003.31
2023-01-30T03:53:07.046Z,1003.26
2023-01-30T03:54:07.004Z,1003.10
2023-01-30T03:55:07.016Z,1003.06
2023-01-30T03:56:07.078Z,1002.99
2023-01-30T03:57:06.991Z,1003.04
2023-01-30T03:58:06.979Z,1003.04
2023-01-30T03:59:06.955Z,1002.96
2023-01-30T04:00:06.955Z,1003.00
2023-01-30T04:01:06.934Z,1002.96
2023-01-30T04:02:06.962Z,1002.92
2023-01-30T04:03:06.904Z,1002.79
2023-01-30T04:04:06.906Z,1002.91
2023-01-30T04:05:06.882Z,1002.89
2023-01-30T04:06:06.888Z,1002.91
2023-01-30T04:07:06.906Z,1002.88
2023-01-30T04:08:06.869Z,1002.91
2023-01-30T04:09:06.833Z,1002.89
2023-01-30T04:10:06.846Z,1002.83
2023-01-30T04:11:06.810Z,1002.82
2023-01-30T04:12:06.818Z,1002.74
2023-01-30T04:13:06.825Z,1002.69
2023-01-30T04:14:06.812Z,1002.70
2023-01-30T04:15:06.773Z,1002.70
2023-01-30T04:16:06.758Z,1002.67
2023-01-30T04:17:06.745Z,1002.68
2023-01-30T04:18:06.765Z,1002.60
2023-01-30T04:19:06.743Z,1002.64
2023-01-30T04:20:06.745Z,1002.55
2023-01-30T04:21:06.742Z,1002.58
2023-01-30T04:22:06.695Z,1002.55
2023-01-30T04:23:06.701Z,1002.48
2023-01-30T04:24:06.688Z,1002.50
2023-01-30T04:25:06.667Z,1002.45
2023-01-30T04:26:06.676Z,1002.42
2023-01-30T04:27:06.652Z,1002.42
2023-01-30T04:28:06.655Z,1002.40
2023-01-30T04:29:06.649Z,1002.39
2023-01-30T04:30:06.619Z,1002.46
2023-01-30T04:31:06.620Z,1002.44
2023-01-30T04:32:06.580Z,1002.41
2023-01-30T04:33:06.602Z,1002.39
2023-01-30T04:34:06.575Z,1002.33
2023-01-30T04:35:06.554Z,1002.40
2023-01-30T04:36:06.564Z,1002.41
2023-01-30T04:37:06.525Z,1002.34
2023-01-30T04:38:06.530Z,1002.41
2023-01-30T04:39:06.519Z,1002.32
2023-01-30T04:40:06.537Z,1002.33
2023-01-30T04:41:06.494Z,1002.32
2023-01-30T04:42:06.463Z,1002.28
2023-01-30T04:43:06.484Z,1002.31
2023-01-30T04:44:06.461Z,1002.33
2023-01-30T04:45:06.461Z,1002.27
2023-01-30T04:46:06.496Z,1002.23
2023-01-30T04:47:06.404Z,1002.20
2023-01-30T04:48:06.402Z,1002.21
2023-01-30T04:49:06.395Z,1002.26
2023-01-30T04:50:06.389Z,1002.18
2023-01-30T04:51:06.389Z,1002.21
2023-01-30T04:52:06.375Z,1002.16
2023-01-30T04:53:06.358Z,1002.12
2023-01-30T04:54:06.335Z,1002.12
2023-01-30T04:55:06.386Z,1002.05
2023-01-30T04:56:06.324Z,1001.96
2023-01-30T04:57:06.306Z,1002.05
2023-01-30T04:58:06.299Z,1002.01
2023-01-30T04:59:06.287Z,1001.98
2023-01-30T05:00:06.273Z,1001.98
2023-01-30T05:01:06.314Z,1001.99
2023-01-30T05:02:06.358Z,1001.98
2023-01-30T05:03:06.238Z,1001.96
2023-01-30T05:04:06.248Z,1002.01
2023-01-30T05:05:06.255Z,1001.99
2023-01-30T05:06:06.231Z,1001.94
2023-01-30T05:07:06.212Z,1001.91
2023-01-30T05:08:06.188Z,1001.89
2023-01-30T05:09:06.193Z,1001.89
2023-01-30T05:10:06.167Z,1001.88
2023-01-30T05:11:06.156Z,1001.82
2023-01-30T05:12:06.132Z,1001.78
2023-01-30T05:13:06.191Z,1001.80
2023-01-30T05:14:06.132Z,1001.71
2023-01-30T05:15:06.114Z,1001.71
2023-01-30T05:16:06.116Z,1001.59
2023-01-30T05:17:06.114Z,1001.68
2023-01-30T05:18:06.075Z,1001.60
2023-01-30T05:19:06.051Z,1001.61
2023-01-30T05:20:06.059Z,1001.61
2023-01-30T05:21:06.070Z,1001.60
2023-01-30T05:22:06.033Z,1001.53
2023-01-30T05:23:06.014Z,1001.54
2023-01-30T05:24:05.990Z,1001.53
2023-01-30T05:25:06.003Z,1001.56
2023-01-30T05:26:06.004Z,1001.49
2023-01-30T05:27:05.975Z,1001.50
2023-01-30T05:28:05.979Z,1001.42
2023-01-30T05:29:05.951Z,1001.46
2023-01-30T05:30:05.943Z,1001.48
2023-01-30T05:31:06.063Z,1001.40
2023-01-30T05:32:05.927Z,1001.48
2023-01-30T05:33:05.952Z,1001.41
2023-01-30T05:34:05.896Z,1001.40
2023-01-30T05:35:05.870Z,1001.42
2023-01-30T05:36:05.868Z,1001.41
2023-01-30T05:37:05.853Z,1001.38
2023-01-30T05:38:05.864Z,1001.38
2023-01-30T05:39:05.844Z,1001.37
2023-01-30T05:40:05.835Z,1001.30
2023-01-30T05:41:05.814Z,1001.33
2023-01-30T05:42:05.802Z,1001.33
2023-01-30T05:43:05.804Z,1001.32
2023-01-30T05:44:05.817Z,1001.27
2023-01-30T05:45:05.783Z,1001.29
2023-01-30T05:46:05.763Z,1001.32
2023-01-30T05:47:05.739Z,1001.34
2023-01-30T05:48:05.729Z,1001.27
2023-01-30T05:49:05.753Z,1001.24
2023-01-30T05:50:05.756Z,1001.21
2023-01-30T05:51:05.718Z,1001.20
2023-01-30T05:52:05.699Z,1001.19
2023-01-30T05:53:05.690Z,1001.19
2023-01-30T05:54:05.721Z,1001.23
2023-01-30T05:55:05.660Z,1001.16
2023-01-30T05:56:05.663Z,1001.13
2023-01-30T05:57:05.629Z,1001.06
2023-01-30T05:58:05.634Z,1001.06
2023-01-30T05:59:05.612Z,1000.98
2023-01-30T06:00:05.621Z,1000.99
2023-01-30T06:01:05.652Z,1001.01
2023-01-30T06:02:05.576Z,1000.97
2023-01-30T06:03:05.566Z,1000.92
2023-01-30T06:04:05.595Z,1000.86
2023-01-30T06:05:05.569Z,1000.79
2023-01-30T06:06:05.563Z,1000.83
2023-01-30T06:07:05.531Z,1000.85
2023-01-30T06:08:05.522Z,1000.81
2023-01-30T06:09:05.529Z,1000.89
2023-01-30T06:10:05.498Z,1000.82
2023-01-30T06:11:05.500Z,1000.87
2023-01-30T06:12:05.476Z,1000.85
2023-01-30T06:13:05.469Z,1000.86
2023-01-30T06:14:05.457Z,1000.88
2023-01-30T06:15:05.441Z,1000.90
2023-01-30T06:16:05.484Z,1000.88
2023-01-30T06:17:05.484Z,1000.88
2023-01-30T06:18:05.426Z,1000.94
2023-01-30T06:19:05.390Z,1000.85
2023-01-30T06:20:05.377Z,1000.81
2023-01-30T06:21:05.397Z,1000.85
2023-01-30T06:22:05.369Z,1000.83
2023-01-30T06:23:05.355Z,1000.85
2023-01-30T06:24:05.348Z,1000.83
2023-01-30T06:25:05.333Z,1000.78
2023-01-30T06:26:08.038Z,1000.86
2023-01-30T06:27:05.319Z,1000.83
2023-01-30T06:28:05.283Z,1000.85
2023-01-30T06:29:05.281Z,1000.83
2023-01-30T06:30:05.286Z,1000.80
2023-01-30T06:31:05.398Z,1000.86
2023-01-30T06:32:05.262Z,1000.79
2023-01-30T06:33:05.251Z,1000.68
2023-01-30T06:34:05.257Z,1000.74
2023-01-30T06:35:05.223Z,1000.78
2023-01-30T06:36:05.206Z,1000.82
2023-01-30T06:37:05.238Z,1000.82
2023-01-30T06:38:05.180Z,1000.83
2023-01-30T06:39:05.180Z,1000.87
2023-01-30T06:40:05.163Z,1000.82
2023-01-30T06:41:05.153Z,1000.90
2023-01-30T06:42:05.149Z,1000.93
2023-01-30T06:43:05.135Z,1000.95
2023-01-30T06:44:05.128Z,1000.94
2023-01-30T06:45:05.187Z,1000.90
2023-01-30T06:46:05.102Z,1000.89
2023-01-30T06:47:05.080Z,1000.83
2023-01-30T06:48:05.087Z,1000.78
2023-01-30T06:49:05.051Z,1000.77
2023-01-30T06:50:05.053Z,1000.78
2023-01-30T06:51:05.052Z,1000.80
2023-01-30T06:52:05.035Z,1000.82
2023-01-30T06:53:05.038Z,1000.78
2023-01-30T06:54:05.028Z,1000.82
2023-01-30T06:55:04.990Z,1000.86
2023-01-30T06:56:04.980Z,1000.88
2023-01-30T06:57:04.961Z,1000.80
2023-01-30T06:58:04.979Z,1000.76
2023-01-30T06:59:04.976Z,1000.74
2023-01-30T07:00:04.949Z,1000.75
2023-01-30T07:01:04.947Z,1000.76
2023-01-30T07:02:04.995Z,1000.70
2023-01-30T07:03:04.938Z,1000.71
2023-01-30T07:04:04.927Z,1000.68
2023-01-30T07:05:04.891Z,1000.69
2023-01-30T07:06:04.868Z,1000.64
2023-01-30T07:07:06.862Z,1000.61
2023-01-30T07:08:04.868Z,1000.55
2023-01-30T07:09:04.863Z,1000.52
2023-01-30T07:10:09.071Z,1000.51
2023-01-30T07:11:04.846Z,1000.54
2023-01-30T07:12:04.829Z,1000.54
2023-01-30T07:13:04.797Z,1000.60
2023-01-30T07:14:06.366Z,1000.55
2023-01-30T07:15:04.803Z,1000.57
2023-01-30T07:16:04.768Z,1000.49
2023-01-30T07:17:04.867Z,1000.54
2023-01-30T07:18:04.763Z,1000.56
2023-01-30T07:19:04.742Z,1000.55
2023-01-30T07:20:04.752Z,1000.51
2023-01-30T07:21:04.708Z,1000.49
2023-01-30T07:22:04.723Z,1000.46
2023-01-30T07:23:04.690Z,1000.44
2023-01-30T07:24:04.687Z,1000.40
2023-01-30T07:25:04.656Z,1000.35
2023-01-30T07:26:04.667Z,1000.34
2023-01-30T07:27:04.648Z,1000.37
2023-01-30T07:28:04.642Z,1000.35
2023-01-30T07:29:04.617Z,1000.34
2023-01-30T07:30:05.001Z,1000.25
2023-01-30T07:31:04.641Z,1000.31
2023-01-30T07:32:04.691Z,1000.31
2023-01-30T07:33:04.734Z,1000.27
2023-01-30T07:34:04.655Z,1000.25
2023-01-30T07:35:06.005Z,1000.28
2023-01-30T07:36:04.589Z,1000.29
2023-01-30T07:37:04.580Z,1000.31
2023-01-30T07:38:04.577Z,1000.23
2023-01-30T07:39:04.561Z,1000.24
2023-01-30T07:40:04.632Z,1000.29
2023-01-30T07:41:04.589Z,1000.32
2023-01-30T07:42:04.506Z,1000.31
2023-01-30T07:43:04.519Z,1000.33
2023-01-30T07:44:04.516Z,1000.33
2023-01-30T07:45:04.488Z,1000.26
2023-01-30T07:46:04.490Z,1000.31
2023-01-30T07:47:04.478Z,1000.35
2023-01-30T07:48:04.524Z,1000.28
2023-01-30T07:49:04.466Z,1000.32
2023-01-30T07:50:04.437Z,1000.25
2023-01-30T07:51:04.462Z,1000.25
2023-01-30T07:52:04.449Z,1000.22
2023-01-30T07:53:04.389Z,1000.32
2023-01-30T07:54:04.378Z,1000.36
2023-01-30T07:55:04.432Z,1000.40
2023-01-30T07:56:04.367Z,1000.43
2023-01-30T07:57:04.341Z,1000.45
2023-01-30T07:58:04.340Z,1000.40
2023-01-30T07:59:04.354Z,1000.43
2023-01-30T08:00:04.341Z,1000.45
2023-01-30T08:01:04.372Z,1000.51
2023-01-30T08:02:04.306Z,1000.50
2023-01-30T08:03:04.327Z,1000.46
2023-01-30T08:04:04.284Z,1000.52
2023-01-30T08:05:06.192Z,1000.53
2023-01-30T08:06:04.352Z,1000.52
2023-01-30T08:07:04.289Z,1000.54
2023-01-30T08:08:04.349Z,1000.56
2023-01-30T08:09:04.214Z,1000.54
2023-01-30T08:10:04.207Z,1000.52
2023-01-30T08:11:04.203Z,1000.60
2023-01-30T08:12:04.176Z,1000.65
2023-01-30T08:13:04.196Z,1000.57
2023-01-30T08:14:04.197Z,1000.49
2023-01-30T08:15:04.167Z,1000.51
2023-01-30T08:16:04.153Z,1000.48
2023-01-30T08:17:04.139Z,1000.49
2023-01-30T08:18:04.137Z,1000.47
2023-01-30T08:19:04.112Z,1000.43
2023-01-30T08:20:04.117Z,1000.42
2023-01-30T08:21:04.165Z,1000.42
2023-01-30T08:22:04.093Z,1000.44
2023-01-30T08:23:04.089Z,1000.40
2023-01-30T08:24:04.072Z,1000.41
2023-01-30T08:25:04.045Z,1000.50
2023-01-30T08:26:04.092Z,1000.42
2023-01-30T08:27:04.082Z,1000.43
2023-01-30T08:28:04.025Z,1000.48
2023-01-30T08:29:04.062Z,1000.53
2023-01-30T08:30:03.972Z,1000.49
2023-01-30T08:31:04.048Z,1000.46
2023-01-30T08:32:04.002Z,1000.42
2023-01-30T08:33:03.979Z,1000.40
2023-01-30T08:34:03.989Z,1000.40
2023-01-30T08:35:03.950Z,1000.39
2023-01-30T08:36:03.931Z,1000.31
2023-01-30T08:37:03.929Z,1000.25
2023-01-30T08:38:03.941Z,1000.28
2023-01-30T08:39:03.903Z,1000.21
2023-01-30T08:40:03.876Z,1000.24
2023-01-30T08:41:03.896Z,1000.20
2023-01-30T08:42:03.885Z,1000.18
2023-01-30T08:43:03.862Z,1000.10
2023-01-30T08:44:03.855Z,1000.06
2023-01-30T08:45:03.847Z,1000.05
2023-01-30T08:46:03.859Z,1000.11
2023-01-30T08:47:03.823Z,1000.18
2023-01-30T08:48:03.804Z,1000.26
2023-01-30T08:49:03.784Z,1000.31
2023-01-30T08:50:03.765Z,1000.38
2023-01-30T08:51:03.853Z,1000.37
2023-01-30T08:52:03.761Z,1000.34
2023-01-30T08:53:03.754Z,1000.35
2023-01-30T08:54:03.731Z,1000.36
2023-01-30T08:55:03.741Z,1000.35
2023-01-30T08:56:03.695Z,1000.32
2023-01-30T08:57:03.721Z,1000.32
2023-01-30T08:58:03.668Z,1000.30
2023-01-30T08:59:03.674Z,1000.33
2023-01-30T09:00:03.662Z,1000.26
2023-01-30T09:01:03.791Z,1000.27
2023-01-30T09:02:03.650Z,1000.27
2023-01-30T09:03:03.641Z,1000.36
2023-01-30T09:04:03.641Z,1000.31
2023-01-30T09:05:03.619Z,1000.38
2023-01-30T09:06:03.603Z,1000.39
2023-01-30T09:07:03.625Z,1000.39
2023-01-30T09:08:03.606Z,1000.33
2023-01-30T09:09:03.580Z,1000.32
2023-01-30T09:10:03.577Z,1000.31
2023-01-30T09:11:03.575Z,1000.32
2023-01-30T09:12:03.557Z,1000.31
2023-01-30T09:13:03.560Z,1000.31
2023-01-30T09:14:03.508Z,1000.31
2023-01-30T09:15:03.492Z,1000.31
2023-01-30T09:16:03.509Z,1000.41
2023-01-30T09:17:03.524Z,1000.39
2023-01-30T09:18:03.477Z,1000.37
2023-01-30T09:19:03.469Z,1000.34
2023-01-30T09:20:03.462Z,1000.35
2023-01-30T09:21:03.457Z,1000.35
2023-01-30T09:22:03.430Z,1000.39
2023-01-30T09:23:03.415Z,1000.40
2023-01-30T09:24:03.410Z,1000.40
2023-01-30T09:25:03.408Z,1000.41
2023-01-30T09:26:03.371Z,1000.46
2023-01-30T09:27:03.408Z,1000.45
2023-01-30T09:28:03.388Z,1000.41
2023-01-30T09:29:03.357Z,1000.39
2023-01-30T09:30:03.366Z,1000.39
2023-01-30T09:31:03.420Z,1000.43
2023-01-30T09:32:03.324Z,1000.42
2023-01-30T09:33:03.336Z,1000.44
2023-01-30T09:34:03.293Z,1000.49
2023-01-30T09:35:03.298Z,1000.50
2023-01-30T09:36:03.274Z,1000.57
2023-01-30T09:37:04.948Z,1000.53
2023-01-30T09:38:03.304Z,1000.51
2023-01-30T09:39:03.288Z,1000.57
2023-01-30T09:40:03.243Z,1000.51
2023-01-30T09:41:03.231Z,1000.53
2023-01-30T09:42:03.259Z,1000.60
2023-01-30T09:43:03.204Z,1000.57
2023-01-30T09:44:03.193Z,1000.58
2023-01-30T09:45:03.169Z,1000.54
2023-01-30T09:46:03.196Z,1000.56
2023-01-30T09:47:03.173Z,1000.54
2023-01-30T09:48:03.190Z,1000.53
2023-01-30T09:49:03.125Z,1000.46
2023-01-30T09:50:03.124Z,1000.42
2023-01-30T09:51:03.135Z,1000.47
2023-01-30T09:52:03.112Z,1000.40
2023-01-30T09:53:03.119Z,1000.40
2023-01-30T09:54:03.103Z,1000.41
2023-01-30T09:55:03.076Z,1000.41
2023-01-30T09:56:03.078Z,1000.38
2023-01-30T09:57:03.042Z,1000.43
2023-01-30T09:58:03.031Z,1000.41
2023-01-30T09:59:03.030Z,1000.41
2023-01-30T10:00:03.059Z,1000.36
2023-01-30T10:01:02.997Z,1000.31
2023-01-30T10:02:03.011Z,1000.35
2023-01-30T10:03:03.032Z,1000.34
2023-01-30T10:04:03.051Z,1000.30
2023-01-30T10:05:03.072Z,1000.27
2023-01-30T10:06:02.930Z,1000.27
2023-01-30T10:07:02.930Z,1000.28
2023-01-30T10:08:02.933Z,1000.26
2023-01-30T10:09:02.948Z,1000.27
2023-01-30T10:10:02.901Z,1000.24
2023-01-30T10:11:10.823Z,1000.30
2023-01-30T10:12:03.909Z,1000.28
2023-01-30T10:13:02.876Z,1000.36
2023-01-30T10:14:02.923Z,1000.33
2023-01-30T10:15:02.886Z,1000.33
2023-01-30T10:16:02.889Z,1000.31
2023-01-30T10:17:02.843Z,1000.31
2023-01-30T10:18:02.834Z,1000.33
2023-01-30T10:19:02.840Z,1000.26
2023-01-30T10:20:02.825Z,1000.24
2023-01-30T10:21:02.889Z,1000.33
2023-01-30T10:22:02.785Z,1000.27
2023-01-30T10:23:02.791Z,1000.23
2023-01-30T10:24:02.753Z,1000.20
2023-01-30T10:25:02.770Z,1000.20
2023-01-30T10:26:02.762Z,1000.23
2023-01-30T10:27:04.740Z,1000.26
2023-01-30T10:28:02.698Z,1000.21
2023-01-30T10:29:07.801Z,1000.24
2023-01-30T10:30:03.684Z,1000.29
2023-01-30T10:31:02.752Z,1000.32
2023-01-30T10:32:02.705Z,1000.29
2023-01-30T10:33:02.677Z,1000.34
2023-01-30T10:34:02.673Z,1000.22
2023-01-30T10:35:02.676Z,1000.22
2023-01-30T10:36:02.652Z,1000.29
2023-01-30T10:37:02.626Z,1000.27
2023-01-30T10:38:02.632Z,1000.23
2023-01-30T10:39:02.628Z,1000.15
2023-01-30T10:40:02.583Z,1000.12
2023-01-30T10:41:02.594Z,1000.21
2023-01-30T10:42:02.575Z,1000.13
2023-01-30T10:43:02.635Z,1000.12
2023-01-30T10:44:02.578Z,1000.20
2023-01-30T10:45:02.520Z,1000.20
2023-01-30T10:46:02.515Z,1000.13
2023-01-30T10:47:02.474Z,1000.14
2023-01-30T10:48:02.483Z,1000.21
2023-01-30T10:49:02.488Z,1000.07
2023-01-30T10:50:02.493Z,1000.11
2023-01-30T10:51:02.433Z,1000.08
2023-01-30T10:52:02.447Z,1000.08
2023-01-30T10:53:02.469Z,1000.08
2023-01-30T10:54:02.444Z,1000.01
2023-01-30T10:55:02.427Z,1000.07
2023-01-30T10:56:02.410Z,1000.02
2023-01-30T10:57:02.445Z,1000.01
2023-01-30T10:58:02.442Z,1000.05
2023-01-30T10:59:02.370Z,1000.00
2023-01-30T11:00:02.438Z,1000.07
2023-01-30T11:01:02.377Z,999.96
2023-01-30T11:02:02.381Z,999.98
2023-01-30T11:03:02.373Z,1000.00
2023-01-30T11:04:02.317Z,1000.00
2023-01-30T11:05:02.349Z,999.98
2023-01-30T11:06:02.274Z,999.98
2023-01-30T11:07:02.313Z,999.90
2023-01-30T11:08:02.294Z,999.92
2023-01-30T11:09:02.340Z,999.89
2023-01-30T11:10:02.224Z,999.92
2023-01-30T11:11:02.245Z,999.90
2023-01-30T11:12:02.263Z,999.88
2023-01-30T11:13:02.247Z,999.90
2023-01-30T11:14:02.222Z,999.88
2023-01-30T11:15:02.184Z,999.81
2023-01-30T11:16:02.239Z,999.85
2023-01-30T11:17:02.216Z,999.84
2023-01-30T11:18:24.251Z,999.82
2023-01-30T11:19:21.208Z,999.86
2023-01-30T11:20:03.186Z,999.85
2023-01-30T11:21:02.126Z,999.78
2023-01-30T11:22:02.110Z,999.74
2023-01-30T11:23:02.126Z,999.71
2023-01-30T11:24:02.085Z,999.76
2023-01-30T11:25:02.086Z,999.59
2023-01-30T11:26:10.855Z,999.75
2023-01-30T11:27:03.086Z,999.62
2023-01-30T11:28:02.051Z,999.62
2023-01-30T11:29:02.071Z,999.62
2023-01-30T11:30:02.012Z,999.62
2023-01-30T11:31:02.093Z,999.51
2023-01-30T11:32:02.079Z,999.53
2023-01-30T11:33:02.022Z,999.50
2023-01-30T11:34:01.991Z,999.52
2023-01-30T11:35:01.999Z,999.50
2023-01-30T11:36:03.729Z,999.45
2023-01-30T11:37:01.922Z,999.41
2023-01-30T11:38:01.924Z,999.41
2023-01-30T11:39:01.976Z,999.37
2023-01-30T11:40:01.912Z,999.38
2023-01-30T11:41:01.917Z,999.39
2023-01-30T11:42:01.906Z,999.32
2023-01-30T11:43:01.944Z,999.31
2023-01-30T11:44:01.891Z,999.35
2023-01-30T11:45:16.595Z,999.30
2023-01-30T11:46:02.890Z,999.22
2023-01-30T11:47:01.919Z,999.25
2023-01-30T11:48:05.175Z,999.27
2023-01-30T11:49:44.663Z,999.16
2023-01-30T11:50:09.954Z,999.31
2023-01-30T11:51:03.178Z,999.36
2023-01-30T11:52:01.811Z,999.22
2023-01-30T11:53:01.763Z,999.19
2023-01-30T11:54:01.748Z,999.23
2023-01-30T11:55:01.795Z,999.21
2023-01-30T11:56:06.414Z,999.22
2023-01-30T11:57:02.721Z,999.25
2023-01-30T11:58:01.721Z,999.25
2023-01-30T11:59:01.700Z,999.27
2023-01-30T12:00:01.830Z,999.13
2023-01-30T12:01:01.703Z,999.14
2023-01-30T12:02:01.744Z,999.26
2023-01-30T12:03:01.679Z,999.17
2023-01-30T12:04:01.674Z,999.14
2023-01-30T12:05:01.631Z,999.17
2023-01-30T12:06:01.629Z,999.09
2023-01-30T12:07:01.616Z,999.05